Time;durP1;ratioP1;P1;durP2;ratioP2;P2;SDS_P1;SDS_P2;PMS_P1;PMS_P2;Temp;Humidity;BMP_temperature;BMP_pressure;BME280_temperature;BME280_humidity;BME280_pressure;Samples;Min_cycle;Max_cycle;Signal;HPM_P1;HPM_P2
2023/05/08 00:01:54;;;;;;;3.70;3.50;;;;;;;14.91;100.00;98870.34;4108720;28;20214;-64
2023/05/08 00:03:56;;;;;;;8.00;3.38;;;;;;;14.78;100.00;98868.09;4124037;28;20293;-63
2023/05/08 00:05:58;;;;;;;2.97;2.78;;;;;;;14.84;100.00;98869.75;4125180;28;20236;-64
2023/05/08 00:08:02;;;;;;;6.20;3.58;;;;;;;14.78;100.00;98870.84;4125957;28;20198;-63
2023/05/08 00:10:05;;;;;;;5.10;3.55;;;;;;;14.75;100.00;98865.88;4123646;28;20221;-63
2023/05/08 00:12:07;;;;;;;3.33;2.88;;;;;;;14.79;100.00;98872.50;4126715;28;20697;-63
2023/05/08 00:14:08;;;;;;;3.13;2.70;;;;;;;14.85;100.00;98876.94;4125321;28;20232;-64
2023/05/08 00:16:11;;;;;;;4.68;3.13;;;;;;;14.87;100.00;98874.75;4125971;28;20211;-63
2023/05/08 00:18:13;;;;;;;3.00;2.80;;;;;;;14.92;100.00;98877.53;4125294;28;20202;-63
2023/05/08 00:20:15;;;;;;;2.83;2.58;;;;;;;14.93;100.00;98879.19;4125706;28;20217;-63
2023/05/08 00:22:18;;;;;;;3.80;3.50;;;;;;;14.99;100.00;98875.34;4125228;28;20206;-64
2023/05/08 00:24:21;;;;;;;3.50;2.78;;;;;;;15.01;100.00;98875.91;4109113;28;20210;-64
2023/05/08 00:26:23;;;;;;;4.13;2.90;;;;;;;15.00;100.00;98877.00;4124651;28;20276;-64
2023/05/08 00:28:24;;;;;;;2.90;2.70;;;;;;;15.10;100.00;98879.78;4125771;28;20206;-64
2023/05/08 00:30:26;;;;;;;2.50;2.30;;;;;;;15.10;100.00;98874.28;4109796;28;20239;-64
2023/05/08 00:32:28;;;;;;;2.97;2.78;;;;;;;15.04;100.00;98875.34;4107199;28;20202;-64
2023/05/08 00:34:30;;;;;;;3.63;2.92;;;;;;;15.03;100.00;98870.94;4126444;28;20720;-64
2023/05/08 00:36:34;;;;;;;3.13;2.83;;;;;;;15.01;100.00;98870.38;4125181;28;20306;-64
2023/05/08 00:38:37;;;;;;;3.55;3.25;;;;;;;15.02;100.00;98866.53;4125462;28;20226;-64
2023/05/08 00:40:40;;;;;;;5.22;3.78;;;;;;;15.01;100.00;98875.91;4125770;28;20243;-63
2023/05/08 00:42:41;;;;;;;3.50;3.30;;;;;;;14.99;100.00;98867.09;4125125;28;20249;-64
2023/05/08 00:44:43;;;;;;;5.57;5.18;;;;;;;14.96;100.00;98873.13;4125915;28;20222;-64
2023/05/08 00:46:48;;;;;;;4.85;3.72;;;;;;;14.98;100.00;98876.44;4125516;28;20230;-64
2023/05/08 00:48:50;;;;;;;4.53;4.13;;;;;;;14.99;100.00;98880.03;4109337;28;20218;-64
2023/05/08 00:50:52;;;;;;;13.60;6.00;;;;;;;15.00;100.00;98877.00;4111096;28;20229;-64
2023/05/08 00:52:54;;;;;;;6.80;5.40;;;;;;;15.01;100.00;98867.63;4128638;28;20579;-63
2023/05/08 00:54:56;;;;;;;5.70;5.30;;;;;;;14.98;100.00;98870.94;4128567;28;20216;-63
2023/05/08 00:56:59;;;;;;;4.78;4.47;;;;;;;15.01;100.00;98875.06;4126933;28;20570;-64
2023/05/08 00:59:04;;;;;;;6.05;5.65;;;;;;;14.98;100.00;98875.63;4126872;28;20228;-64
2023/05/08 01:01:06;;;;;;;6.10;5.70;;;;;;;14.95;100.00;98865.94;4107755;28;20777;-63
2023/05/08 01:03:08;;;;;;;7.20;6.70;;;;;;;15.00;100.00;98868.75;4127268;28;20643;-64
2023/05/08 01:05:10;;;;;;;6.82;6.22;;;;;;;15.08;100.00;98870.13;4111689;28;20265;-63
2023/05/08 01:07:12;;;;;;;7.82;7.28;;;;;;;14.99;100.00;98867.09;4127579;28;20228;-63
2023/05/08 01:09:14;;;;;;;7.60;6.97;;;;;;;14.94;100.00;98864.31;4128838;28;20213;-64
2023/05/08 01:11:28;;;;;;;6.53;6.03;;;;;;;14.93;100.00;98868.16;4127637;28;20288;-64
2023/05/08 01:13:50;;;;;;;5.93;5.50;;;;;;;14.96;100.00;98873.13;4105609;28;20206;-63
2023/05/08 01:16:21;;;;;;;6.57;6.13;;;;;;;14.97;100.00;98880.28;4128610;28;20210;-63
2023/05/08 01:18:34;;;;;;;8.52;7.18;;;;;;;14.90;100.00;98868.69;4128654;28;20206;-63
2023/05/08 01:20:56;;;;;;;7.07;6.45;;;;;;;14.90;100.00;98879.69;4110529;28;20222;-64
2023/05/08 01:23:31;;;;;;;6.88;6.38;;;;;;;14.89;100.00;98868.97;4107530;28;20274;-63
2023/05/08 01:26:14;;;;;;;6.72;6.22;;;;;;;14.84;100.00;98867.00;4130338;28;20244;-63
2023/05/08 01:28:47;;;;;;;9.85;9.15;;;;;;;14.68;100.00;98865.28;4129223;28;20220;-63
2023/05/08 01:31:11;;;;;;;8.73;8.13;;;;;;;14.70;100.00;98874.09;4130031;28;20226;-64
2023/05/08 01:33:17;;;;;;;9.30;8.60;;;;;;;14.75;100.00;98871.38;4111979;28;20655;-64
2023/05/08 01:35:21;;;;;;;10.55;8.43;;;;;;;14.78;100.00;98876.38;4126472;28;20365;-64
2023/05/08 01:37:49;;;;;;;9.48;8.77;;;;;;;14.84;100.00;98875.25;4110288;28;20211;-63
2023/05/08 01:40:09;;;;;;;8.18;7.50;;;;;;;14.85;100.00;98878.84;4122487;28;20225;-64
2023/05/08 01:42:18;;;;;;;10.70;9.38;;;;;;;14.70;100.00;98879.59;4127392;28;20209;-64
2023/05/08 01:44:22;;;;;;;10.25;9.55;;;;;;;14.72;100.00;98871.91;4127238;28;20685;-64
2023/05/08 01:46:26;;;;;;;9.25;8.68;;;;;;;14.77;100.00;98877.44;4080288;28;20307;-63
2023/05/08 01:48:38;;;;;;;8.68;8.07;;;;;;;14.74;100.00;98886.25;4095447;28;21547;-64
2023/05/08 01:50:45;;;;;;;9.27;8.55;;;;;;;14.76;100.00;98889.56;4109380;28;20614;-64
2023/05/08 01:52:50;;;;;;;9.25;8.65;;;;;;;14.79;100.00;98894.56;4104399;28;20218;-64
2023/05/08 01:54:56;;;;;;;8.38;7.72;;;;;;;14.83;100.00;98898.41;4106037;28;20219;-63
2023/05/08 01:56:59;;;;;;;9.32;7.68;;;;;;;14.86;100.00;98895.13;4111616;28;20203;-64
2023/05/08 01:59:01;;;;;;;7.15;6.53;;;;;;;14.90;100.00;98890.72;4111009;28;20218;-64
2023/05/08 02:01:03;;;;;;;7.60;7.00;;;;;;;14.95;100.00;98893.50;4109891;28;20227;-64
2023/05/08 02:03:07;;;;;;;8.75;8.15;;;;;;;14.94;100.00;98897.38;4111109;28;20641;-64
2023/05/08 02:05:09;;;;;;;7.57;7.07;;;;;;;14.94;100.00;98894.63;4103756;28;20706;-64
2023/05/08 02:07:12;;;;;;;8.20;7.50;;;;;;;14.96;100.00;98900.69;4126677;28;20221;-64
2023/05/08 02:09:16;;;;;;;7.65;7.05;;;;;;;14.94;100.00;98900.13;4127091;28;20296;-63
2023/05/08 02:11:19;;;;;;;7.93;7.43;;;;;;;14.97;100.00;98904.28;4131246;28;20293;-63
2023/05/08 02:13:22;;;;;;;8.02;7.35;;;;;;;15.00;100.00;98907.31;4105586;28;20231;-64
2023/05/08 02:15:24;;;;;;;7.15;6.68;;;;;;;14.99;100.00;98905.66;4127971;28;20615;-63
2023/05/08 02:17:27;;;;;;;6.78;6.28;;;;;;;14.99;100.00;98902.91;4109901;28;20207;-63
2023/05/08 02:19:30;;;;;;;6.20;5.70;;;;;;;15.02;100.00;98905.13;4089060;28;20344;-63
2023/05/08 02:21:32;;;;;;;6.97;6.55;;;;;;;15.05;100.00;98914.78;4108907;28;20317;-63
2023/05/08 02:23:34;;;;;;;7.30;6.65;;;;;;;15.00;100.00;98907.31;4108856;28;20269;-63
2023/05/08 02:25:37;;;;;;;7.15;6.60;;;;;;;14.97;100.00;98907.84;4109132;28;20207;-63
2023/05/08 02:27:39;;;;;;;8.82;8.05;;;;;;;15.02;100.00;98909.81;4108152;28;20657;-63
2023/05/08 02:29:41;;;;;;;7.78;7.28;;;;;;;14.97;100.00;98907.84;4128031;28;20843;-63
2023/05/08 02:31:44;;;;;;;7.05;6.55;;;;;;;15.00;100.00;98901.81;4110213;28;20212;-63
2023/05/08 02:33:46;;;;;;;8.18;7.57;;;;;;;14.99;100.00;98900.16;4110287;28;20321;-63
2023/05/08 02:35:49;;;;;;;8.70;7.97;;;;;;;14.96;100.00;98914.47;4093391;28;20215;-63
2023/05/08 02:37:54;;;;;;;9.05;8.45;;;;;;;14.98;100.00;98903.19;4108745;28;20670;-64
2023/05/08 02:40:01;;;;;;;8.30;7.80;;;;;;;14.96;100.00;98900.69;4108129;28;20262;-63
2023/05/08 02:42:03;;;;;;;8.80;8.20;;;;;;;14.95;100.00;98910.03;4110210;28;20698;-63
2023/05/08 02:44:06;;;;;;;8.25;7.75;;;;;;;14.94;100.00;98908.41;4127319;28;20205;-63
2023/05/08 02:46:17;;;;;;;8.45;7.88;;;;;;;14.91;100.00;98911.66;4126456;28;20210;-63
2023/05/08 02:48:29;;;;;;;9.45;8.65;;;;;;;14.90;100.00;98907.25;4109112;28;20226;-63
2023/05/08 02:50:52;;;;;;;8.55;8.05;;;;;;;14.89;100.00;98905.59;4127169;28;20238;-63
2023/05/08 02:53:02;;;;;;;8.70;8.13;;;;;;;14.94;100.00;98913.91;4126300;28;20212;-63
2023/05/08 02:55:14;;;;;;;9.75;9.05;;;;;;;14.89;100.00;98905.59;4126003;28;20208;-63
2023/05/08 02:57:23;;;;;;;9.35;8.65;;;;;;;14.87;100.00;98913.31;4111569;28;20242;-63
2023/05/08 02:59:30;;;;;;;9.50;8.80;;;;;;;14.85;100.00;98910.00;4127428;28;20662;-63
2023/05/08 03:01:51;;;;;;;8.63;8.02;;;;;;;14.86;100.00;98906.16;4128622;28;20234;-63
2023/05/08 03:04:05;;;;;;;9.52;8.82;;;;;;;14.88;100.00;98905.88;4095741;28;20211;-63
2023/05/08 03:06:20;;;;;;;10.60;9.57;;;;;;;14.88;100.00;98909.47;4112372;28;20590;-63
2023/05/08 03:08:34;;;;;;;10.30;9.60;;;;;;;14.87;100.00;98913.31;4110631;28;20282;-63
2023/05/08 03:10:39;;;;;;;9.23;8.57;;;;;;;14.90;100.00;98912.78;4124660;28;20265;-63
2023/05/08 03:12:45;;;;;;;10.68;9.98;;;;;;;14.85;100.00;98904.50;4126221;28;20206;-64
2023/05/08 03:15:06;;;;;;;10.00;9.30;;;;;;;14.84;100.00;98900.06;4123770;28;20206;-63
2023/05/08 03:17:12;;;;;;;8.80;8.20;;;;;;;14.86;100.00;98906.16;4108759;28;20207;-63
2023/05/08 03:19:29;;;;;;;8.63;8.02;;;;;;;14.89;100.00;98900.09;4124420;28;20245;-63
2023/05/08 03:21:32;;;;;;;8.13;7.53;;;;;;;14.92;100.00;98907.84;4126309;28;20649;-63
2023/05/08 03:23:35;;;;;;;8.73;8.13;;;;;;;14.89;100.00;98905.59;4094545;28;20207;-63
2023/05/08 03:25:39;;;;;;;9.82;8.57;;;;;;;14.86;100.00;98906.16;4106583;28;20206;-64
2023/05/08 03:27:41;;;;;;;8.68;8.07;;;;;;;14.86;100.00;98908.91;4107646;28;20760;-63
2023/05/08 03:29:43;;;;;;;11.50;10.80;;;;;;;14.82;100.00;98909.72;4109299;28;20238;-64
2023/05/08 03:31:47;;;;;;;11.25;10.48;;;;;;;14.82;100.00;98904.22;4122650;28;20210;-63
2023/05/08 03:33:54;;;;;;;10.13;9.43;;;;;;;14.78;100.00;98903.06;4107539;28;20766;-63
2023/05/08 03:35:59;;;;;;;12.73;11.82;;;;;;;14.78;100.00;98898.41;4126509;28;20209;-63
2023/05/08 03:38:03;;;;;;;11.98;11.07;;;;;;;14.71;100.00;98903.28;4109264;28;20414;-63
2023/05/08 03:40:06;;;;;;;12.25;11.38;;;;;;;14.80;100.00;98900.88;4126137;28;20225;-63
2023/05/08 03:42:08;;;;;;;11.38;10.40;;;;;;;14.77;100.00;98902.22;4092095;28;20203;-63
2023/05/08 03:44:11;;;;;;;13.18;12.18;;;;;;;14.72;100.00;98898.63;4102865;28;20210;-63
2023/05/08 03:46:15;;;;;;;11.63;10.82;;;;;;;14.70;100.00;98901.66;4096369;28;20283;-63
2023/05/08 03:48:17;;;;;;;12.68;11.68;;;;;;;14.67;100.00;98904.94;4114696;28;20611;-63
2023/05/08 03:50:19;;;;;;;13.18;12.20;;;;;;;14.60;100.00;98901.59;4117578;28;20230;-63
2023/05/08 03:52:20;;;;;;;15.07;12.30;;;;;;;14.60;100.00;98896.09;4121076;28;20618;-64
2023/05/08 03:54:24;;;;;;;12.07;11.23;;;;;;;14.61;100.00;98897.75;4120453;28;20230;-63
2023/05/08 03:56:26;;;;;;;12.32;11.43;;;;;;;14.66;100.00;98894.19;4121378;28;20210;-64
2023/05/08 03:58:44;;;;;;;10.07;9.25;;;;;;;14.65;100.00;98904.41;4120316;28;20198;-64
2023/05/08 04:00:49;;;;;;;9.60;8.90;;;;;;;14.68;100.00;98909.34;4122287;28;20254;-63
2023/05/08 04:03:13;;;;;;;11.25;10.45;;;;;;;14.70;100.00;98901.66;4122117;28;22480;-63
2023/05/08 04:05:28;;;;;;;12.27;11.45;;;;;;;14.71;100.00;98919.81;4109067;28;20626;-64
2023/05/08 04:08:21;;;;;;;10.52;9.68;;;;;;;14.74;100.00;98916.56;4106753;28;20226;-63
2023/05/08 04:10:30;;;;;;;11.18;10.27;;;;;;;14.75;100.00;98915.44;4076492;29;20262;-64
2023/05/08 04:13:15;;;;;;;12.15;11.25;;;;;;;14.71;100.00;98925.34;4094252;28;20206;-64
2023/05/08 04:15:26;;;;;;;11.73;10.65;;;;;;;14.73;100.00;98917.66;4070887;28;20249;-63
2023/05/08 04:17:48;;;;;;;10.05;9.00;;;;;;;14.81;100.00;98925.41;4102690;28;20581;-64
2023/05/08 04:19:55;;;;;;;10.07;9.38;;;;;;;14.78;100.00;98925.97;4101911;28;20884;-64
2023/05/08 04:22:03;;;;;;;10.45;9.50;;;;;;;14.76;100.00;98925.38;4088495;28;20207;-64
2023/05/08 04:24:06;;;;;;;10.68;9.90;;;;;;;14.78;100.00;98920.44;4111068;28;20210;-63
2023/05/08 04:26:09;;;;;;;10.27;9.55;;;;;;;14.78;100.00;98933.38;4110739;28;20733;-64
2023/05/08 04:28:11;;;;;;;10.30;9.40;;;;;;;14.85;100.00;98932.06;4126185;28;20235;-64
2023/05/08 04:30:13;;;;;;;9.50;8.52;;;;;;;14.76;100.00;98939.16;4103611;28;20374;-69
2023/05/08 04:32:16;;;;;;;9.02;8.20;;;;;;;14.76;100.00;98930.88;4125972;28;20206;-64
2023/05/08 04:34:17;;;;;;;8.63;7.82;;;;;;;14.74;100.00;98937.75;4102597;28;20772;-64
2023/05/08 04:36:24;;;;;;;8.43;7.82;;;;;;;14.77;100.00;98943.56;4122636;28;20333;-64
2023/05/08 04:38:25;;;;;;;7.85;7.25;;;;;;;14.74;100.00;98935.84;4124482;28;20703;-64
2023/05/08 04:40:27;;;;;;;8.32;7.72;;;;;;;14.78;100.00;98942.50;4110073;28;20234;-64
2023/05/08 04:42:29;;;;;;;8.32;7.72;;;;;;;14.80;100.00;98945.81;4128350;28;20762;-64
2023/05/08 04:44:31;;;;;;;8.38;7.68;;;;;;;14.78;100.00;98942.50;4125539;28;20198;-64
2023/05/08 04:46:33;;;;;;;7.78;7.18;;;;;;;14.78;100.00;98947.16;4124063;28;20212;-64
2023/05/08 04:48:35;;;;;;;11.65;8.90;;;;;;;14.77;100.00;98946.31;4125058;28;20230;-64
2023/05/08 04:50:39;;;;;;;7.85;7.22;;;;;;;14.78;100.00;98948.00;4122956;28;20713;-64
2023/05/08 04:52:41;;;;;;;8.45;7.85;;;;;;;14.77;100.00;98943.56;4124436;28;20708;-63
2023/05/08 04:54:43;;;;;;;8.23;7.60;;;;;;;14.71;100.00;98947.38;4122815;28;20221;-64
2023/05/08 04:56:45;;;;;;;8.52;7.93;;;;;;;14.72;100.00;98954.56;4102826;28;20233;-64
2023/05/08 04:58:46;;;;;;;8.02;7.40;;;;;;;14.75;100.00;98947.69;4103255;28;20210;-64
2023/05/08 05:00:48;;;;;;;9.73;9.02;;;;;;;14.65;100.00;98948.47;4102018;28;20702;-64
2023/05/08 05:02:50;;;;;;;8.95;8.15;;;;;;;14.67;100.00;98950.94;4123647;28;20214;-64
2023/05/08 05:04:51;;;;;;;7.25;6.75;;;;;;;14.67;100.00;98950.94;4105656;28;20859;-64
2023/05/08 05:06:53;;;;;;;7.63;6.95;;;;;;;14.70;100.00;98953.19;4123461;28;20674;-64
2023/05/08 05:08:55;;;;;;;7.25;6.75;;;;;;;14.73;100.00;98956.22;4122487;28;22133;-64
2023/05/08 05:10:57;;;;;;;7.47;6.97;;;;;;;14.75;100.00;98956.78;4122955;28;20232;-63
2023/05/08 05:13:01;;;;;;;7.30;6.75;;;;;;;14.79;100.00;98966.19;4106303;28;20233;-63
2023/05/08 05:15:06;;;;;;;8.88;8.18;;;;;;;14.78;100.00;98959.03;4126004;28;20261;-63
2023/05/08 05:17:07;;;;;;;8.63;8.05;;;;;;;14.78;100.00;98956.28;4119697;28;20224;-64
2023/05/08 05:19:09;;;;;;;7.20;6.70;;;;;;;14.77;100.00;98957.34;4103722;28;20218;-64
2023/05/08 05:21:12;;;;;;;8.85;8.15;;;;;;;14.72;100.00;98960.09;4108754;28;20438;-64
2023/05/08 05:23:13;;;;;;;9.93;9.10;;;;;;;14.71;100.00;98958.41;4123174;28;20206;-64
2023/05/08 05:25:15;;;;;;;9.13;8.52;;;;;;;14.63;100.00;98956.16;4121608;28;20661;-64
2023/05/08 05:27:22;;;;;;;9.00;8.40;;;;;;;14.70;100.00;98966.94;4106211;28;20210;-64
2023/05/08 05:29:24;;;;;;;8.45;7.03;;;;;;;14.73;100.00;98967.25;4124529;28;20309;-63
2023/05/08 05:31:29;;;;;;;10.07;9.38;;;;;;;14.72;100.00;98976.63;4125931;28;20269;-64
2023/05/08 05:33:31;;;;;;;12.20;9.00;;;;;;;14.73;100.00;98970.00;4123724;28;20647;-63
2023/05/08 05:35:32;;;;;;;9.88;9.07;;;;;;;14.76;100.00;98963.13;4107163;28;20305;-63
2023/05/08 05:37:34;;;;;;;10.25;9.48;;;;;;;14.80;100.00;98967.84;4106760;28;20305;-64
2023/05/08 05:39:36;;;;;;;8.80;8.07;;;;;;;14.82;100.00;98968.41;4106897;28;20210;-63
2023/05/08 05:41:38;;;;;;;8.02;7.53;;;;;;;14.84;100.00;98974.47;4121446;28;20233;-64
2023/05/08 05:43:40;;;;;;;9.50;8.90;;;;;;;14.86;100.00;98977.81;4124534;28;20241;-63
2023/05/08 05:45:41;;;;;;;9.52;8.73;;;;;;;14.88;100.00;98975.59;4125874;28;20269;-64
2023/05/08 05:47:45;;;;;;;10.82;8.75;;;;;;;14.87;100.00;98979.47;4108329;28;20226;-64
2023/05/08 05:49:48;;;;;;;10.73;9.82;;;;;;;14.92;100.00;98975.91;4105942;28;20958;-64
2023/05/08 05:51:50;;;;;;;10.93;9.93;;;;;;;14.91;100.00;98982.50;4123810;28;20206;-64
2023/05/08 05:53:55;;;;;;;9.77;8.98;;;;;;;14.92;100.00;98986.91;4108250;28;20257;-62
2023/05/08 05:55:58;;;;;;;9.65;8.75;;;;;;;14.95;100.00;98987.22;4126030;28;20629;-62
2023/05/08 05:58:00;;;;;;;10.32;9.63;;;;;;;14.95;100.00;98980.88;4127559;28;20202;-62
2023/05/08 06:00:04;;;;;;;10.48;9.52;;;;;;;14.93;100.00;98983.91;4094920;28;20231;-62
2023/05/08 06:02:09;;;;;;;11.32;9.90;;;;;;;14.95;100.00;98987.22;4109426;28;20204;-62
2023/05/08 06:04:12;;;;;;;11.07;10.27;;;;;;;14.96;100.00;98980.59;4108948;28;20281;-62
2023/05/08 06:06:15;;;;;;;10.55;9.85;;;;;;;14.97;100.00;98984.19;4097085;28;20222;-62
2023/05/08 06:08:17;;;;;;;11.32;10.52;;;;;;;14.93;100.00;98989.41;4108830;28;20225;-62
2023/05/08 06:10:23;;;;;;;10.45;9.73;;;;;;;14.96;100.00;98977.03;4125613;28;20974;-62
2023/05/08 06:12:25;;;;;;;14.80;13.40;;;;;;;14.95;100.00;98976.19;4125846;28;20233;-62
2023/05/08 06:14:35;;;;;;;13.52;12.43;;;;;;;14.97;100.00;98979.50;4110342;28;20207;-62
2023/05/08 06:16:37;;;;;;;16.05;14.50;;;;;;;14.92;100.00;98982.25;4127716;28;20205;-62
2023/05/08 06:18:42;;;;;;;12.63;11.57;;;;;;;14.93;100.00;98977.56;4108558;28;20729;-62
2023/05/08 06:20:46;;;;;;;13.50;12.60;;;;;;;14.90;100.00;98978.91;4107829;28;20234;-62
2023/05/08 06:22:47;;;;;;;13.10;12.20;;;;;;;14.89;100.00;98982.78;4127453;28;20210;-62
2023/05/08 06:24:53;;;;;;;15.98;14.57;;;;;;;14.76;100.00;98977.72;4108546;28;20218;-62
2023/05/08 06:26:55;;;;;;;17.58;16.27;;;;;;;14.74;100.00;98977.16;4088506;28;20247;-62
2023/05/08 06:29:12;;;;;;;18.48;17.17;;;;;;;14.71;100.00;98985.94;4086377;28;20219;-63
2023/05/08 06:31:23;;;;;;;28.27;16.85;;;;;;;14.74;100.00;98982.69;4109623;28;20226;-63
2023/05/08 06:33:25;;;;;;;19.27;17.80;;;;;;;14.75;100.00;98981.56;4130367;28;20216;-62
2023/05/08 06:35:28;;;;;;;18.42;16.95;;;;;;;14.74;100.00;98982.69;4129607;28;20205;-62
2023/05/08 06:37:40;;;;;;;19.17;17.85;;;;;;;14.81;100.00;98982.44;4092432;28;20208;-63
2023/05/08 06:40:03;;;;;;;21.48;19.98;;;;;;;14.73;100.00;98981.03;4095091;28;20238;-64
2023/05/08 06:42:24;;;;;;;18.98;17.38;;;;;;;14.66;100.00;98985.94;4090391;28;20208;-62
2023/05/08 06:44:26;;;;;;;21.30;19.77;;;;;;;14.75;100.00;98987.09;4127167;28;20293;-62
2023/05/08 06:46:28;;;;;;;21.40;19.75;;;;;;;14.75;100.00;98980.75;4096240;28;20299;-62
2023/05/08 06:48:30;;;;;;;22.45;20.52;;;;;;;14.76;100.00;98977.72;4129032;28;20276;-63
2023/05/08 06:50:32;;;;;;;23.42;21.63;;;;;;;14.73;100.00;98981.03;4129118;28;20230;-63
2023/05/08 06:52:33;;;;;;;19.80;18.33;;;;;;;14.88;100.00;98981.13;4129243;28;20216;-63
2023/05/08 06:54:35;;;;;;;19.80;17.77;;;;;;;14.93;100.00;98981.16;4130282;28;20609;-64
2023/05/08 06:56:48;;;;;;;17.52;16.02;;;;;;;14.98;100.00;98992.22;4110941;28;20207;-63
2023/05/08 06:58:50;;;;;;;19.60;16.45;;;;;;;14.86;100.00;98983.31;4126368;28;20209;-63
2023/05/08 07:01:05;;;;;;;16.20;14.73;;;;;;;14.93;100.00;98981.16;4106593;28;20237;-63
2023/05/08 07:03:06;;;;;;;18.42;16.77;;;;;;;14.97;100.00;98984.19;4119808;28;20256;-63
2023/05/08 07:05:08;;;;;;;20.85;18.88;;;;;;;15.01;100.00;98988.91;4122344;28;20216;-64
2023/05/08 07:07:12;;;;;;;17.67;16.25;;;;;;;15.13;100.00;98991.44;4118565;28;20222;-64
2023/05/08 07:09:15;;;;;;;18.05;16.35;;;;;;;15.05;100.00;98992.81;4121902;28;20616;-63
2023/05/08 07:11:19;;;;;;;17.63;16.05;;;;;;;15.05;100.00;98992.81;4125787;28;20667;-64
2023/05/08 07:13:21;;;;;;;17.17;15.77;;;;;;;15.00;100.00;98991.94;4127701;28;20210;-64
2023/05/08 07:15:23;;;;;;;20.70;13.82;;;;;;;15.00;100.00;98995.53;4127495;28;20681;-64
2023/05/08 07:17:27;;;;;;;17.00;15.63;;;;;;;15.01;100.00;99007.34;4110077;28;20233;-64
2023/05/08 07:19:28;;;;;;;17.60;16.02;;;;;;;15.05;100.00;99003.84;4125289;28;20312;-64
2023/05/08 07:21:30;;;;;;;18.40;17.08;;;;;;;15.05;100.00;99009.34;4125575;28;20221;-64
2023/05/08 07:23:31;;;;;;;20.25;18.60;;;;;;;14.98;100.00;99005.16;4120697;28;20217;-64
2023/05/08 07:25:33;;;;;;;20.10;18.40;;;;;;;14.98;100.00;99014.25;4123013;28;20206;-64
2023/05/08 07:27:34;;;;;;;19.85;18.10;;;;;;;15.03;100.00;99005.19;4123213;28;20662;-64
2023/05/08 07:29:36;;;;;;;19.40;17.42;;;;;;;14.98;100.00;99014.25;4122520;28;20222;-64
2023/05/08 07:31:39;;;;;;;21.20;19.38;;;;;;;14.96;100.00;99010.94;4119066;28;20214;-64
2023/05/08 07:33:41;;;;;;;19.75;18.17;;;;;;;14.92;100.00;99004.31;4119661;28;20237;-64
2023/05/08 07:35:43;;;;;;;20.95;19.15;;;;;;;14.87;100.00;99009.78;4124394;28;20276;-63
2023/05/08 07:37:45;;;;;;;20.67;18.83;;;;;;;14.90;100.00;99005.66;4093088;28;20306;-63
2023/05/08 07:40:06;;;;;;;20.95;19.15;;;;;;;14.84;100.00;99004.78;4092399;28;20231;-64
2023/05/08 07:42:29;;;;;;;19.70;18.00;;;;;;;14.87;100.00;99011.69;4090764;28;20647;-64
2023/05/08 07:44:40;;;;;;;21.27;19.33;;;;;;;14.92;100.00;99004.31;4109352;28;20831;-63
2023/05/08 07:47:17;;;;;;;19.80;18.13;;;;;;;14.97;100.00;99009.81;4098340;28;20211;-63
2023/05/08 07:49:36;;;;;;;21.35;19.85;;;;;;;14.93;100.00;99014.22;4129037;28;21371;-65
2023/05/08 07:52:03;;;;;;;23.80;21.73;;;;;;;14.81;100.00;99019.09;4092565;28;20246;-66
2023/05/08 07:54:09;;;;;;;24.45;22.33;;;;;;;14.74;100.00;99018.50;4109703;28;20205;-64
2023/05/08 07:56:11;;;;;;;24.95;22.55;;;;;;;14.62;100.00;99020.59;4126171;28;20238;-64
2023/05/08 07:58:13;;;;;;;24.23;22.08;;;;;;;14.77;100.00;99017.94;4128465;28;20248;-64
2023/05/08 08:00:15;;;;;;;25.30;23.15;;;;;;;14.64;100.00;99012.91;4124700;28;20226;-65
2023/05/08 08:02:17;;;;;;;24.35;22.45;;;;;;;14.71;100.00;99019.00;4110026;28;20294;-64
2023/05/08 08:04:23;;;;;;;24.38;21.33;;;;;;;14.81;100.00;99019.09;4108271;28;20274;-65
2023/05/08 08:06:31;;;;;;;23.63;21.48;;;;;;;14.79;100.00;99021.28;4111013;28;20292;-64
2023/05/08 08:08:33;;;;;;;33.72;21.60;;;;;;;14.86;100.00;99021.91;4092232;28;20223;-63
2023/05/08 08:10:34;;;;;;;25.02;23.00;;;;;;;14.65;100.00;99020.09;4111256;28;20262;-63
2023/05/08 08:12:36;;;;;;;23.33;21.50;;;;;;;14.54;100.00;99018.34;4107762;28;20207;-63
2023/05/08 08:14:38;;;;;;;23.88;21.95;;;;;;;14.66;100.00;99030.00;4150801;23;20234;-44
2023/05/08 08:16:41;;;;;;;24.60;22.08;;;;;;;14.68;100.00;99025.06;4159098;28;20196;-43
2023/05/08 08:18:43;;;;;;;24.60;22.23;;;;;;;14.71;100.00;99026.47;4142668;28;20203;-43
2023/05/08 08:20:44;;;;;;;24.58;22.15;;;;;;;14.89;100.00;99031.56;4138226;28;20248;-44
2023/05/08 08:22:46;;;;;;;24.67;22.55;;;;;;;15.02;100.00;99031.91;4110150;28;20218;-44
2023/05/08 08:24:48;;;;;;;24.92;22.45;;;;;;;15.10;100.00;99023.13;4120967;28;20206;-43
2023/05/08 08:26:51;;;;;;;24.25;22.05;;;;;;;15.26;100.00;99032.31;4129503;28;20209;-44
2023/05/08 08:29:06;;;;;;;24.30;21.85;;;;;;;15.19;100.00;99038.09;4137063;28;20229;-44
2023/05/08 08:31:08;;;;;;;23.70;21.65;;;;;;;15.34;100.00;99034.59;4109068;28;20208;-43
2023/05/08 08:33:16;;;;;;;23.33;21.13;;;;;;;15.12;100.00;99037.50;4126749;28;20252;-44
2023/05/08 08:35:19;;;;;;;24.85;22.50;;;;;;;15.20;100.00;99034.25;4111684;28;20208;-44
2023/05/08 08:37:21;;;;;;;23.55;21.48;;;;;;;15.30;100.00;99042.56;4118401;28;20213;-43
2023/05/08 08:39:23;;;;;;;24.73;22.58;;;;;;;15.21;100.00;99030.38;4120282;28;20225;-44
2023/05/08 08:41:26;;;;;;;24.98;22.77;;;;;;;15.45;100.00;99041.84;4122985;28;20214;-45
2023/05/08 08:43:29;;;;;;;24.63;22.65;;;;;;;15.14;100.00;99037.22;4121397;28;20644;-43
2023/05/08 08:45:31;;;;;;;23.58;21.67;;;;;;;15.38;100.00;99042.09;4125218;28;20301;-43
2023/05/08 08:47:36;;;;;;;26.60;21.48;;;;;;;15.55;100.00;99048.22;4135951;28;20219;-43
2023/05/08 08:49:51;;;;;;;21.42;19.88;;;;;;;15.70;100.00;99042.78;4121188;28;20233;-44
2023/05/08 08:51:56;;;;;;;21.83;19.67;;;;;;;15.86;100.00;99043.66;4137688;28;20649;-44
2023/05/08 08:54:06;;;;;;;20.45;18.80;;;;;;;15.89;100.00;99038.44;4114608;28;20249;-44
2023/05/08 08:56:08;;;;;;;22.13;20.23;;;;;;;15.81;100.00;99041.72;4117430;28;20323;-43
2023/05/08 08:58:46;;;;;;;20.65;18.85;;;;;;;15.95;100.00;99042.88;4119468;28;20289;-43
2023/05/08 09:01:23;;;;;;;19.70;18.00;;;;;;;15.94;100.00;99041.22;4138221;28;20206;-43
2023/05/08 09:03:34;;;;;;;20.77;19.27;;;;;;;16.14;100.00;99048.72;4134682;28;20679;-44
2023/05/08 09:05:42;;;;;;;23.17;19.00;;;;;;;15.97;100.00;99045.38;4119802;28;20260;-44
2023/05/08 09:07:48;;;;;;;20.20;18.75;;;;;;;16.15;100.00;99048.44;4103074;28;20249;-43
2023/05/08 09:10:01;;;;;;;22.30;19.98;;;;;;;16.22;100.00;99053.72;4139106;28;20257;-44
2023/05/08 09:12:29;;;;;;;20.23;18.58;;;;;;;16.37;100.00;99051.78;4141376;28;20244;-43
2023/05/08 09:15:01;;;;;;;19.10;17.30;;;;;;;16.35;100.00;99045.72;4141050;28;20275;-43
2023/05/08 09:17:20;;;;;;;19.73;17.88;;;;;;;16.34;100.00;99051.50;4111590;28;20251;-43
2023/05/08 09:19:31;;;;;;;19.10;17.50;;;;;;;16.35;100.00;99042.94;4121587;28;20222;-44
2023/05/08 09:21:41;;;;;;;18.85;17.27;;;;;;;16.28;100.00;99058.97;4113104;28;20217;-43
2023/05/08 09:24:04;;;;;;;19.48;18.02;;;;;;;16.21;100.00;99057.56;4125962;28;21433;-43
2023/05/08 09:26:10;;;;;;;18.13;16.65;;;;;;;16.21;100.00;99050.13;4121260;28;20234;-45
2023/05/08 09:28:22;;;;;;;18.13;16.63;;;;;;;16.20;100.00;99059.50;4123574;28;20216;-44
2023/05/08 09:30:29;;;;;;;19.30;16.92;;;;;;;16.15;100.00;99064.19;4138016;28;20240;-44
2023/05/08 09:32:54;;;;;;;18.02;16.63;;;;;;;16.12;100.00;99061.97;4124657;28;20309;-43
2023/05/08 09:35:40;;;;;;;18.88;17.17;;;;;;;16.08;100.00;99060.84;4136078;28;20297;-47
2023/05/08 09:37:59;;;;;;;17.90;16.20;;;;;;;16.10;100.00;99059.47;4142749;28;20876;-43
2023/05/08 09:40:31;;;;;;;18.55;16.83;;;;;;;16.05;100.00;99059.47;4122716;28;20226;-43
2023/05/08 09:42:52;;;;;;;18.33;16.63;;;;;;;16.14;100.00;99068.03;4133773;28;20213;-44
2023/05/08 09:44:54;;;;;;;18.35;16.95;;;;;;;16.16;100.00;99066.66;4122017;28;20214;-44